createdAt,value
2022-11-14T04:02:22.954Z,6.80
2022-11-14T04:05:10.412Z,6.90
2022-11-14T04:07:56.697Z,6.80
2022-11-14T04:10:43.262Z,6.80
2022-11-14T04:13:29.977Z,6.80
2022-11-14T04:16:16.211Z,6.80
2022-11-14T04:19:03.832Z,6.70
2022-11-14T04:21:50.105Z,6.70
2022-11-14T04:24:36.596Z,6.80
2022-11-14T04:27:23.197Z,6.80
2022-11-14T04:30:10.542Z,6.90
2022-11-14T04:32:56.844Z,7.00
2022-11-14T04:35:44.488Z,7.10
2022-11-14T04:38:31.230Z,7.00
2022-11-14T04:41:17.720Z,7.10
2022-11-14T04:44:04.129Z,7.00
2022-11-14T04:46:50.594Z,7.00
2022-11-14T04:49:37.391Z,7.00
2022-11-14T04:52:25.037Z,7.00
2022-11-14T04:55:11.670Z,7.00
2022-11-14T04:57:59.124Z,7.00
2022-11-14T05:00:45.460Z,7.10
2022-11-14T05:03:31.812Z,7.10
2022-11-14T05:06:18.168Z,7.10
2022-11-14T05:09:05.708Z,7.10
2022-11-14T05:11:52.128Z,7.10
2022-11-14T05:14:38.306Z,7.20
2022-11-14T05:17:24.856Z,7.20
2022-11-14T05:20:12.166Z,7.20
2022-11-14T05:22:58.706Z,7.20
2022-11-14T05:25:46.472Z,7.20
2022-11-14T05:28:33.140Z,7.30
2022-11-14T05:31:19.654Z,7.20
2022-11-14T05:34:06.172Z,7.20
2022-11-14T05:36:52.871Z,7.30
2022-11-14T05:39:39.270Z,7.40
2022-11-14T05:42:28.484Z,7.40
2022-11-14T05:45:15.177Z,7.40
2022-11-14T05:48:01.595Z,7.30
2022-11-14T05:50:47.861Z,7.20
2022-11-14T05:53:34.960Z,7.10
2022-11-14T05:56:21.696Z,7.10
2022-11-14T05:59:09.337Z,7.00
2022-11-14T06:01:55.800Z,7.00
2022-11-14T06:04:42.206Z,7.00
2022-11-14T06:07:28.517Z,7.00
2022-11-14T06:10:15.210Z,7.20
2022-11-14T06:13:01.913Z,7.20
2022-11-14T06:15:49.477Z,7.20
2022-11-14T06:18:36.641Z,7.20
2022-11-14T06:21:24.982Z,7.30
2022-11-14T06:24:11.319Z,7.30
2022-11-14T06:26:57.492Z,7.30
2022-11-14T06:29:43.909Z,7.40
2022-11-14T06:32:31.494Z,7.40
2022-11-14T06:35:17.849Z,7.40
2022-11-14T06:38:04.429Z,7.40
2022-11-14T06:40:50.976Z,7.40
2022-11-14T06:43:38.458Z,7.40
2022-11-14T06:46:25.178Z,7.40
2022-11-14T06:49:12.814Z,7.50
2022-11-14T06:51:59.099Z,7.40
2022-11-14T06:54:45.309Z,7.50
2022-11-14T06:57:31.498Z,7.40
2022-11-14T07:00:18.079Z,7.40
2022-11-14T07:03:04.672Z,7.40
2022-11-14T07:05:52.544Z,7.30
2022-11-14T07:08:39.369Z,7.30
2022-11-14T07:11:29.404Z,7.40
2022-11-14T07:14:15.968Z,7.40
2022-11-14T07:17:02.268Z,7.40
2022-11-14T07:19:48.526Z,7.40
2022-11-14T07:22:36.196Z,7.40
2022-11-14T07:25:22.739Z,7.40
2022-11-14T07:28:09.330Z,7.50
2022-11-14T07:30:56.085Z,7.60
2022-11-14T07:33:44.070Z,7.60
2022-11-14T07:36:30.560Z,7.50
2022-11-14T07:39:18.301Z,7.60
2022-11-14T07:42:04.835Z,7.70
2022-11-14T07:44:51.059Z,7.70
2022-11-14T07:47:37.707Z,7.70
2022-11-14T07:50:24.464Z,7.80
2022-11-14T07:53:11.324Z,7.80
2022-11-14T07:56:03.950Z,7.70
2022-11-14T07:58:50.367Z,7.70
2022-11-14T08:01:37.040Z,7.80
2022-11-14T08:04:23.190Z,7.80
2022-11-14T08:07:10.007Z,7.90
2022-11-14T08:09:56.621Z,7.90
2022-11-14T08:12:44.405Z,8.00
2022-11-14T08:15:30.898Z,8.00
2022-11-14T08:18:17.265Z,8.10
2022-11-14T08:21:05.410Z,8.00
2022-11-14T08:23:51.913Z,8.10
2022-11-14T08:26:39.473Z,8.00
2022-11-14T08:29:27.291Z,8.20
2022-11-14T08:32:13.933Z,8.40
2022-11-14T08:35:00.693Z,8.40
2022-11-14T08:37:47.011Z,8.40
2022-11-14T08:40:33.377Z,8.40
2022-11-14T08:43:19.777Z,8.40
2022-11-14T08:46:07.388Z,8.40
2022-11-14T08:48:54.221Z,8.30
2022-11-14T08:51:40.566Z,8.30
2022-11-14T08:54:27.155Z,8.30
2022-11-14T08:57:15.199Z,8.30
2022-11-14T09:00:01.702Z,8.30
2022-11-14T09:02:49.444Z,8.40
2022-11-14T09:05:36.042Z,8.40
2022-11-14T09:08:23.607Z,8.40
2022-11-14T09:11:10.713Z,8.40
2022-11-14T09:13:58.471Z,8.30
2022-11-14T09:16:44.689Z,8.30
2022-11-14T09:19:33.461Z,8.40
2022-11-14T09:22:22.556Z,8.40
2022-11-14T09:25:10.000Z,8.40
2022-11-14T09:27:56.678Z,8.40
2022-11-14T09:30:43.445Z,8.50
2022-11-14T09:33:30.252Z,8.60
2022-11-14T09:36:18.595Z,8.60
2022-11-14T09:39:05.041Z,8.60
2022-11-14T09:42:09.874Z,8.60
2022-11-14T09:44:59.939Z,8.70
2022-11-14T09:47:49.514Z,8.60
2022-11-14T09:50:41.169Z,8.70
2022-11-14T09:53:33.097Z,8.80
2022-11-14T09:56:23.671Z,8.80
2022-11-14T09:59:12.078Z,8.80
2022-11-14T10:02:06.998Z,8.70
2022-11-14T10:05:17.217Z,8.70
2022-11-14T10:08:21.650Z,8.80
2022-11-14T10:11:14.106Z,8.80
2022-11-14T10:14:28.926Z,8.70
2022-11-14T10:17:32.791Z,8.80
2022-11-14T10:20:24.893Z,8.90
2022-11-14T10:23:24.787Z,9.00
2022-11-14T10:26:20.783Z,9.10
2022-11-14T10:29:32.409Z,9.20
2022-11-14T10:32:35.494Z,9.30
2022-11-14T10:35:28.713Z,9.20
2022-11-14T10:38:21.501Z,9.20
2022-11-14T10:41:19.298Z,9.30
2022-11-14T10:44:23.478Z,9.30
2022-11-14T10:47:15.710Z,9.40
2022-11-14T10:50:15.424Z,9.50
2022-11-14T10:53:05.758Z,9.70
2022-11-14T10:56:09.487Z,9.80
2022-11-14T10:58:55.799Z,9.80
2022-11-14T11:01:44.985Z,9.80
2022-11-14T11:04:33.929Z,9.70
2022-11-14T11:07:41.445Z,9.80
2022-11-14T11:10:45.391Z,9.90
2022-11-14T11:13:34.696Z,9.90
2022-11-14T11:16:24.605Z,10.00
2022-11-14T11:19:25.621Z,10.00
2022-11-14T11:22:27.873Z,10.10
2022-11-14T11:25:25.209Z,10.20
2022-11-14T11:28:14.764Z,10.20
2022-11-14T11:31:03.266Z,10.30
2022-11-14T11:33:49.943Z,10.20
2022-11-14T11:36:43.124Z,10.30
2022-11-14T11:39:32.500Z,10.30
2022-11-14T11:42:23.182Z,10.20
2022-11-14T11:45:17.449Z,10.30
2022-11-14T11:48:14.999Z,10.40
2022-11-14T11:51:03.839Z,10.60
2022-11-14T11:53:58.933Z,10.60
2022-11-14T11:56:48.625Z,10.70
2022-11-14T11:59:41.602Z,10.70
2022-11-14T12:02:29.299Z,10.80
2022-11-14T12:05:18.276Z,10.80
2022-11-14T12:08:09.536Z,10.80
2022-11-14T12:10:59.020Z,10.70
2022-11-14T12:14:03.551Z,10.70
2022-11-14T12:17:13.746Z,10.70
2022-11-14T12:20:27.744Z,10.80
2022-11-14T12:23:46.002Z,10.90
2022-11-14T12:26:45.681Z,11.00
2022-11-14T12:30:04.411Z,11.00
2022-11-14T12:32:54.548Z,11.00
2022-11-14T12:35:50.976Z,11.10
2022-11-14T12:38:44.592Z,11.00
2022-11-14T12:41:33.947Z,10.90
2022-11-14T12:44:37.654Z,10.90
2022-11-14T12:47:25.764Z,10.80
2022-11-14T12:50:40.365Z,10.70
2022-11-14T12:53:42.101Z,10.70
2022-11-14T12:56:55.361Z,10.70
2022-11-14T12:59:54.901Z,10.60
2022-11-14T13:03:14.823Z,10.60
2022-11-14T13:06:06.370Z,10.70
2022-11-14T13:09:05.146Z,10.70
2022-11-14T13:12:10.481Z,10.60
2022-11-14T13:15:38.174Z,10.60
2022-11-14T13:18:43.655Z,10.60
2022-11-14T13:21:47.295Z,10.60
2022-11-14T13:25:06.160Z,10.60
2022-11-14T13:28:18.894Z,10.60
2022-11-14T13:31:20.402Z,10.60
2022-11-14T13:34:48.843Z,10.70
2022-11-14T13:37:53.824Z,10.60
2022-11-14T13:40:47.691Z,10.60
2022-11-14T13:43:48.508Z,10.60
2022-11-14T13:46:48.840Z,10.60
2022-11-14T13:49:53.353Z,10.60
2022-11-14T13:52:43.564Z,10.60
2022-11-14T13:55:40.235Z,10.60
2022-11-14T13:58:45.657Z,10.70
2022-11-14T14:01:49.483Z,10.70
2022-11-14T14:04:48.439Z,10.80
2022-11-14T14:07:50.448Z,10.90
2022-11-14T14:10:43.225Z,10.90
2022-11-14T14:13:43.356Z,10.90
2022-11-14T14:16:37.430Z,10.80
2022-11-14T14:19:39.186Z,10.80
2022-11-14T14:22:35.403Z,10.80
2022-11-14T14:25:28.409Z,10.80
2022-11-14T14:28:23.713Z,10.80
2022-11-14T14:31:13.368Z,10.80
2022-11-14T14:33:59.629Z,10.80
2022-11-14T14:36:52.897Z,10.80
2022-11-14T14:39:40.529Z,10.70
2022-11-14T14:42:32.210Z,10.70
2022-11-14T14:45:23.715Z,10.60
2022-11-14T14:48:15.504Z,10.50
2022-11-14T14:51:05.077Z,10.50
2022-11-14T14:53:54.470Z,10.50
2022-11-14T14:56:41.023Z,10.50
2022-11-14T14:59:29.645Z,10.50
2022-11-14T15:02:18.678Z,10.50
2022-11-14T15:05:06.287Z,10.50
2022-11-14T15:07:55.572Z,10.40
2022-11-14T15:10:44.293Z,10.40
2022-11-14T15:13:32.083Z,10.40
2022-11-14T15:16:23.301Z,10.40
2022-11-14T15:19:15.981Z,10.40
2022-11-14T15:22:04.936Z,10.40
2022-11-14T15:25:19.453Z,10.30
2022-11-14T15:28:17.501Z,10.40
2022-11-14T15:31:06.150Z,10.40
2022-11-14T15:34:03.774Z,10.40
2022-11-14T15:37:07.489Z,10.50
2022-11-14T15:39:54.154Z,10.40
2022-11-14T15:42:40.533Z,10.50
2022-11-14T15:45:29.994Z,10.50
2022-11-14T15:48:20.106Z,10.60
2022-11-14T15:51:06.964Z,10.50
2022-11-14T15:53:54.444Z,10.40
2022-11-14T15:56:43.209Z,10.50
2022-11-14T15:59:32.460Z,10.50
2022-11-14T16:02:23.690Z,10.50
2022-11-14T16:05:14.260Z,10.50
2022-11-14T16:08:00.637Z,10.50
2022-11-14T16:10:47.022Z,10.50
2022-11-14T16:13:33.762Z,10.50
2022-11-14T16:16:21.638Z,10.50
2022-11-14T16:19:11.442Z,10.40
2022-11-14T16:22:02.569Z,10.50
2022-11-14T16:24:49.102Z,10.50
2022-11-14T16:27:35.828Z,10.40
2022-11-14T16:30:23.498Z,10.50
2022-11-14T16:33:10.526Z,10.40
2022-11-14T16:35:59.533Z,10.40
2022-11-14T16:38:51.090Z,10.30
2022-11-14T16:41:38.806Z,10.40
2022-11-14T16:44:25.170Z,10.40
2022-11-14T16:47:15.269Z,10.40
2022-11-14T16:50:01.789Z,10.40
2022-11-14T16:52:49.584Z,10.30
2022-11-14T16:55:36.050Z,10.30
2022-11-14T16:58:22.388Z,10.20
2022-11-14T17:01:18.655Z,10.10
2022-11-14T17:04:07.782Z,10.20
2022-11-14T17:06:54.196Z,10.30
2022-11-14T17:09:42.123Z,10.30
2022-11-14T17:12:29.734Z,10.40
2022-11-14T17:15:16.229Z,10.50
2022-11-14T17:18:02.615Z,10.60
2022-11-14T17:20:48.972Z,10.60
2022-11-14T17:23:35.580Z,10.70
2022-11-14T17:26:23.526Z,10.60
2022-11-14T17:29:11.885Z,10.60
2022-11-14T17:31:58.410Z,10.60
2022-11-14T17:34:44.763Z,10.60
2022-11-14T17:37:31.391Z,10.70
2022-11-14T17:40:17.911Z,10.70
2022-11-14T17:43:05.981Z,10.70
2022-11-14T17:45:56.188Z,10.70
2022-11-14T17:48:42.560Z,10.80
2022-11-14T17:51:28.839Z,10.80
2022-11-14T17:54:15.222Z,10.80
2022-11-14T17:57:01.457Z,10.70
2022-11-14T17:59:49.511Z,10.70
2022-11-14T18:02:35.778Z,10.60
2022-11-14T18:05:22.119Z,10.70
2022-11-14T18:08:08.530Z,10.80
2022-11-14T18:10:55.046Z,10.70
2022-11-14T18:13:42.238Z,10.70
2022-11-14T18:16:50.526Z,10.70
2022-11-14T18:19:37.742Z,10.70
2022-11-14T18:22:24.489Z,10.80
2022-11-14T18:25:10.743Z,10.80
2022-11-14T18:27:57.049Z,10.80
2022-11-14T18:30:43.563Z,10.90
2022-11-14T18:33:31.083Z,10.90
2022-11-14T18:36:17.417Z,10.90
2022-11-14T18:39:03.960Z,10.90
2022-11-14T18:41:50.282Z,10.90
2022-11-14T18:44:36.720Z,10.90
2022-11-14T18:47:23.073Z,10.90
2022-11-14T18:50:10.881Z,10.90
2022-11-14T18:52:57.321Z,10.90
2022-11-14T18:55:43.785Z,10.70
2022-11-14T18:58:30.025Z,10.60
2022-11-14T19:01:21.966Z,10.60
2022-11-14T19:04:10.555Z,10.70
2022-11-14T19:06:58.331Z,10.70
2022-11-14T19:09:45.200Z,10.70
2022-11-14T19:12:31.893Z,10.70
2022-11-14T19:15:18.208Z,10.60
2022-11-14T19:18:04.872Z,10.60
2022-11-14T19:20:58.449Z,10.60
2022-11-14T19:23:46.346Z,10.60
2022-11-14T19:26:32.737Z,10.60
2022-11-14T19:29:19.478Z,10.60
2022-11-14T19:32:06.465Z,10.50
2022-11-14T19:34:52.956Z,10.50
2022-11-14T19:37:39.375Z,10.50
2022-11-14T19:40:27.928Z,10.40
2022-11-14T19:43:14.371Z,10.40
2022-11-14T19:46:03.456Z,10.30
2022-11-14T19:48:50.132Z,10.30
2022-11-14T19:51:36.693Z,10.30
2022-11-14T19:54:23.066Z,10.30
2022-11-14T19:57:10.984Z,10.20
2022-11-14T19:59:57.470Z,10.20
2022-11-14T20:02:46.546Z,10.20
2022-11-14T20:05:33.405Z,10.20
2022-11-14T20:08:19.662Z,10.20
2022-11-14T20:11:07.282Z,10.20
2022-11-14T20:13:56.127Z,10.20
2022-11-14T20:16:42.729Z,10.20
2022-11-14T20:19:29.169Z,10.00
2022-11-14T20:22:15.587Z,10.00
2022-11-14T20:25:01.862Z,10.00
2022-11-14T20:27:49.003Z,10.00
2022-11-14T20:30:39.006Z,10.00
2022-11-14T20:33:25.334Z,10.10
2022-11-14T20:36:16.465Z,10.20
2022-11-14T20:39:03.081Z,10.20
2022-11-14T20:41:49.530Z,10.10
2022-11-14T20:44:35.952Z,10.10
2022-11-14T20:47:23.623Z,10.10
2022-11-14T20:50:10.515Z,10.10
2022-11-14T20:52:56.988Z,10.10
2022-11-14T20:55:43.378Z,10.10
2022-11-14T20:58:29.975Z,10.10
2022-11-14T21:01:17.056Z,10.00
2022-11-14T21:04:05.269Z,10.10
2022-11-14T21:06:52.196Z,10.10
2022-11-14T21:09:38.485Z,10.10
2022-11-14T21:12:24.782Z,10.00
2022-11-14T21:15:11.425Z,9.90
2022-11-14T21:17:57.714Z,9.90
2022-11-14T21:20:45.298Z,9.90
2022-11-14T21:23:32.346Z,10.00
2022-11-14T21:26:20.737Z,10.00
2022-11-14T21:29:09.381Z,10.10
2022-11-14T21:31:55.883Z,10.10
2022-11-14T21:34:42.117Z,10.10
2022-11-14T21:37:29.935Z,10.10
2022-11-14T21:40:16.782Z,10.10
2022-11-14T21:43:03.709Z,10.10
2022-11-14T21:45:58.668Z,10.10
2022-11-14T21:48:47.422Z,10.20
2022-11-14T21:51:33.858Z,10.20
2022-11-14T21:54:21.529Z,10.20
2022-11-14T21:57:10.207Z,10.30
2022-11-14T21:59:57.202Z,10.30
2022-11-14T22:03:00.774Z,10.20
2022-11-14T22:05:47.304Z,10.30
2022-11-14T22:08:33.632Z,10.30
2022-11-14T22:11:21.259Z,10.30
2022-11-14T22:14:08.154Z,10.30
2022-11-14T22:16:54.845Z,10.30
2022-11-14T22:19:41.163Z,10.30
2022-11-14T22:22:27.386Z,10.20
2022-11-14T22:25:13.645Z,10.20
2022-11-14T22:28:01.360Z,10.10
